sensor_id;sensor_type;location;lat;lon;timestamp;P1;durP1;ratioP1;P2;durP2;ratioP2
1977;SDS011;989;53.016;8.346;2023-07-13T00:01:58;11.50;;;5.87;;
1977;SDS011;989;53.016;8.346;2023-07-13T00:04:24;11.70;;;5.47;;
1977;SDS011;989;53.016;8.346;2023-07-13T00:06:51;28.00;;;7.33;;
1977;SDS011;989;53.016;8.346;2023-07-13T00:09:17;15.00;;;6.50;;
1977;SDS011;989;53.016;8.346;2023-07-13T00:11:44;10.63;;;6.70;;
1977;SDS011;989;53.016;8.346;2023-07-13T00:14:12;13.30;;;6.80;;
1977;SDS011;989;53.016;8.346;2023-07-13T00:16:40;11.23;;;5.60;;
1977;SDS011;989;53.016;8.346;2023-07-13T00:19:08;13.97;;;6.60;;
1977;SDS011;989;53.016;8.346;2023-07-13T00:21:36;14.40;;;6.20;;
1977;SDS011;989;53.016;8.346;2023-07-13T00:24:06;13.37;;;7.17;;
1977;SDS011;989;53.016;8.346;2023-07-13T00:26:33;14.10;;;7.10;;
1977;SDS011;989;53.016;8.346;2023-07-13T00:28:59;14.47;;;6.50;;
1977;SDS011;989;53.016;8.346;2023-07-13T00:31:25;17.03;;;6.30;;
1977;SDS011;989;53.016;8.346;2023-07-13T00:33:51;13.23;;;7.27;;
1977;SDS011;989;53.016;8.346;2023-07-13T00:36:19;15.30;;;6.70;;
1977;SDS011;989;53.016;8.346;2023-07-13T00:38:45;22.60;;;7.83;;
1977;SDS011;989;53.016;8.346;2023-07-13T00:41:12;20.03;;;8.13;;
1977;SDS011;989;53.016;8.346;2023-07-13T00:43:38;16.57;;;6.87;;
1977;SDS011;989;53.016;8.346;2023-07-13T00:46:10;19.20;;;6.43;;
1977;SDS011;989;53.016;8.346;2023-07-13T00:48:40;12.93;;;6.80;;
1977;SDS011;989;53.016;8.346;2023-07-13T00:51:06;16.40;;;7.63;;
1977;SDS011;989;53.016;8.346;2023-07-13T00:53:32;16.83;;;6.80;;
1977;SDS011;989;53.016;8.346;2023-07-13T00:55:59;12.40;;;6.00;;
1977;SDS011;989;53.016;8.346;2023-07-13T00:58:27;11.00;;;6.47;;
1977;SDS011;989;53.016;8.346;2023-07-13T01:00:54;12.93;;;6.77;;
1977;SDS011;989;53.016;8.346;2023-07-13T01:03:20;13.07;;;6.27;;
1977;SDS011;989;53.016;8.346;2023-07-13T01:05:47;15.03;;;7.10;;
1977;SDS011;989;53.016;8.346;2023-07-13T01:08:14;11.97;;;6.60;;
1977;SDS011;989;53.016;8.346;2023-07-13T01:10:40;14.10;;;7.33;;
1977;SDS011;989;53.016;8.346;2023-07-13T01:13:15;17.60;;;7.40;;
1977;SDS011;989;53.016;8.346;2023-07-13T01:18:09;20.83;;;7.20;;
1977;SDS011;989;53.016;8.346;2023-07-13T01:20:40;16.93;;;7.20;;
1977;SDS011;989;53.016;8.346;2023-07-13T01:23:11;16.50;;;6.90;;
1977;SDS011;989;53.016;8.346;2023-07-13T01:25:38;16.30;;;6.00;;
1977;SDS011;989;53.016;8.346;2023-07-13T01:28:04;57.83;;;6.83;;
1977;SDS011;989;53.016;8.346;2023-07-13T01:30:33;15.53;;;6.37;;
1977;SDS011;989;53.016;8.346;2023-07-13T01:33:05;18.53;;;6.70;;
1977;SDS011;989;53.016;8.346;2023-07-13T01:35:34;18.37;;;7.67;;
1977;SDS011;989;53.016;8.346;2023-07-13T01:38:01;14.20;;;6.13;;
1977;SDS011;989;53.016;8.346;2023-07-13T01:40:28;13.23;;;6.97;;
1977;SDS011;989;53.016;8.346;2023-07-13T01:42:55;11.53;;;6.00;;
1977;SDS011;989;53.016;8.346;2023-07-13T01:45:22;15.00;;;6.53;;
1977;SDS011;989;53.016;8.346;2023-07-13T01:47:49;23.53;;;6.73;;
1977;SDS011;989;53.016;8.346;2023-07-13T01:50:15;16.20;;;7.30;;
1977;SDS011;989;53.016;8.346;2023-07-13T01:52:41;14.67;;;6.63;;
1977;SDS011;989;53.016;8.346;2023-07-13T01:55:07;15.97;;;6.47;;
1977;SDS011;989;53.016;8.346;2023-07-13T01:57:37;10.53;;;6.00;;
1977;SDS011;989;53.016;8.346;2023-07-13T02:00:03;12.10;;;6.30;;
1977;SDS011;989;53.016;8.346;2023-07-13T02:02:30;14.30;;;6.77;;
1977;SDS011;989;53.016;8.346;2023-07-13T02:04:57;14.67;;;6.37;;
1977;SDS011;989;53.016;8.346;2023-07-13T02:07:23;15.37;;;7.73;;
1977;SDS011;989;53.016;8.346;2023-07-13T02:09:49;16.93;;;6.37;;
1977;SDS011;989;53.016;8.346;2023-07-13T02:12:15;13.33;;;6.47;;
1977;SDS011;989;53.016;8.346;2023-07-13T02:14:41;16.10;;;6.13;;
1977;SDS011;989;53.016;8.346;2023-07-13T02:17:09;17.40;;;7.10;;
1977;SDS011;989;53.016;8.346;2023-07-13T02:19:35;15.07;;;7.10;;
1977;SDS011;989;53.016;8.346;2023-07-13T02:22:02;12.97;;;5.50;;
1977;SDS011;989;53.016;8.346;2023-07-13T02:24:28;11.40;;;5.30;;
1977;SDS011;989;53.016;8.346;2023-07-13T02:26:54;13.27;;;5.53;;
1977;SDS011;989;53.016;8.346;2023-07-13T02:29:20;13.43;;;5.90;;
1977;SDS011;989;53.016;8.346;2023-07-13T02:31:46;17.47;;;6.77;;
1977;SDS011;989;53.016;8.346;2023-07-13T02:34:13;13.43;;;6.20;;
1977;SDS011;989;53.016;8.346;2023-07-13T02:36:39;12.70;;;5.80;;
1977;SDS011;989;53.016;8.346;2023-07-13T02:39:06;14.87;;;4.90;;
1977;SDS011;989;53.016;8.346;2023-07-13T02:41:32;17.60;;;5.80;;
1977;SDS011;989;53.016;8.346;2023-07-13T02:43:58;19.03;;;5.00;;
1977;SDS011;989;53.016;8.346;2023-07-13T02:46:36;22.40;;;5.77;;
1977;SDS011;989;53.016;8.346;2023-07-13T02:49:02;14.33;;;4.73;;
1977;SDS011;989;53.016;8.346;2023-07-13T02:51:29;16.43;;;4.23;;
1977;SDS011;989;53.016;8.346;2023-07-13T02:53:55;15.33;;;4.93;;
1977;SDS011;989;53.016;8.346;2023-07-13T02:56:23;13.77;;;4.30;;
1977;SDS011;989;53.016;8.346;2023-07-13T02:58:50;10.80;;;4.10;;
1977;SDS011;989;53.016;8.346;2023-07-13T03:01:17;18.93;;;4.33;;
1977;SDS011;989;53.016;8.346;2023-07-13T03:03:44;10.43;;;3.50;;
1977;SDS011;989;53.016;8.346;2023-07-13T03:06:11;11.30;;;3.67;;
1977;SDS011;989;53.016;8.346;2023-07-13T03:08:37;13.40;;;4.30;;
1977;SDS011;989;53.016;8.346;2023-07-13T03:11:08;20.60;;;5.17;;
1977;SDS011;989;53.016;8.346;2023-07-13T03:13:37;16.37;;;3.70;;
1977;SDS011;989;53.016;8.346;2023-07-13T03:16:03;11.47;;;3.40;;
1977;SDS011;989;53.016;8.346;2023-07-13T03:18:30;15.80;;;3.57;;
1977;SDS011;989;53.016;8.346;2023-07-13T03:20:56;12.00;;;4.13;;
1977;SDS011;989;53.016;8.346;2023-07-13T03:23:23;12.90;;;3.50;;
1977;SDS011;989;53.016;8.346;2023-07-13T03:25:49;15.13;;;3.50;;
1977;SDS011;989;53.016;8.346;2023-07-13T03:28:25;11.70;;;2.40;;
1977;SDS011;989;53.016;8.346;2023-07-13T03:30:58;14.33;;;4.57;;
1977;SDS011;989;53.016;8.346;2023-07-13T03:33:35;19.47;;;3.07;;
1977;SDS011;989;53.016;8.346;2023-07-13T03:36:02;10.87;;;3.07;;
1977;SDS011;989;53.016;8.346;2023-07-13T03:38:31;12.10;;;3.10;;
1977;SDS011;989;53.016;8.346;2023-07-13T03:40:58;15.53;;;3.77;;
1977;SDS011;989;53.016;8.346;2023-07-13T03:43:24;19.20;;;3.17;;
1977;SDS011;989;53.016;8.346;2023-07-13T03:45:50;12.63;;;3.23;;
1977;SDS011;989;53.016;8.346;2023-07-13T03:48:16;9.60;;;2.80;;
1977;SDS011;989;53.016;8.346;2023-07-13T03:50:42;11.50;;;3.10;;
1977;SDS011;989;53.016;8.346;2023-07-13T03:53:09;18.40;;;3.17;;
1977;SDS011;989;53.016;8.346;2023-07-13T03:55:35;11.90;;;2.77;;
1977;SDS011;989;53.016;8.346;2023-07-13T04:00:51;16.80;;;3.20;;
1977;SDS011;989;53.016;8.346;2023-07-13T04:03:17;14.90;;;2.90;;
1977;SDS011;989;53.016;8.346;2023-07-13T04:05:43;14.30;;;2.83;;
1977;SDS011;989;53.016;8.346;2023-07-13T04:08:09;7.63;;;2.30;;
1977;SDS011;989;53.016;8.346;2023-07-13T04:10:35;8.67;;;2.23;;
1977;SDS011;989;53.016;8.346;2023-07-13T04:13:01;16.27;;;2.63;;
1977;SDS011;989;53.016;8.346;2023-07-13T04:15:28;20.73;;;3.60;;
1977;SDS011;989;53.016;8.346;2023-07-13T04:17:55;21.57;;;3.43;;
1977;SDS011;989;53.016;8.346;2023-07-13T04:20:22;11.50;;;2.80;;
1977;SDS011;989;53.016;8.346;2023-07-13T04:22:49;16.80;;;3.20;;
1977;SDS011;989;53.016;8.346;2023-07-13T04:25:15;9.13;;;3.20;;
1977;SDS011;989;53.016;8.346;2023-07-13T04:27:41;11.00;;;3.30;;
1977;SDS011;989;53.016;8.346;2023-07-13T04:30:07;15.37;;;2.87;;
1977;SDS011;989;53.016;8.346;2023-07-13T04:32:34;11.30;;;2.43;;
1977;SDS011;989;53.016;8.346;2023-07-13T04:35:00;10.60;;;2.93;;
1977;SDS011;989;53.016;8.346;2023-07-13T04:37:26;13.30;;;3.03;;
1977;SDS011;989;53.016;8.346;2023-07-13T04:39:52;12.40;;;3.10;;
1977;SDS011;989;53.016;8.346;2023-07-13T04:42:18;6.30;;;2.70;;
1977;SDS011;989;53.016;8.346;2023-07-13T04:44:48;14.20;;;3.10;;
1977;SDS011;989;53.016;8.346;2023-07-13T04:47:15;9.90;;;2.63;;
1977;SDS011;989;53.016;8.346;2023-07-13T04:49:41;6.50;;;2.30;;
1977;SDS011;989;53.016;8.346;2023-07-13T04:52:07;11.97;;;2.30;;
1977;SDS011;989;53.016;8.346;2023-07-13T04:54:33;17.07;;;3.17;;
1977;SDS011;989;53.016;8.346;2023-07-13T04:57:00;10.17;;;2.63;;
1977;SDS011;989;53.016;8.346;2023-07-13T04:59:26;13.37;;;2.93;;
1977;SDS011;989;53.016;8.346;2023-07-13T05:01:52;15.17;;;3.13;;
1977;SDS011;989;53.016;8.346;2023-07-13T05:04:18;8.13;;;2.40;;
1977;SDS011;989;53.016;8.346;2023-07-13T05:06:45;15.43;;;2.60;;
1977;SDS011;989;53.016;8.346;2023-07-13T05:09:11;20.17;;;3.37;;
1977;SDS011;989;53.016;8.346;2023-07-13T05:11:37;10.03;;;2.10;;
1977;SDS011;989;53.016;8.346;2023-07-13T05:14:04;17.90;;;2.43;;
1977;SDS011;989;53.016;8.346;2023-07-13T05:16:30;12.73;;;2.90;;
1977;SDS011;989;53.016;8.346;2023-07-13T05:18:57;13.30;;;2.83;;
1977;SDS011;989;53.016;8.346;2023-07-13T05:21:23;19.90;;;2.60;;
1977;SDS011;989;53.016;8.346;2023-07-13T05:23:49;15.50;;;2.30;;
1977;SDS011;989;53.016;8.346;2023-07-13T05:26:15;11.90;;;3.30;;
1977;SDS011;989;53.016;8.346;2023-07-13T05:28:41;12.63;;;2.50;;
1977;SDS011;989;53.016;8.346;2023-07-13T05:31:08;17.23;;;2.87;;
1977;SDS011;989;53.016;8.346;2023-07-13T05:33:34;16.20;;;3.13;;
1977;SDS011;989;53.016;8.346;2023-07-13T05:36:00;10.20;;;2.23;;
1977;SDS011;989;53.016;8.346;2023-07-13T05:38:27;15.27;;;2.90;;
1977;SDS011;989;53.016;8.346;2023-07-13T05:40:53;10.60;;;2.20;;
1977;SDS011;989;53.016;8.346;2023-07-13T05:43:21;15.90;;;2.60;;
1977;SDS011;989;53.016;8.346;2023-07-13T05:45:47;11.27;;;2.90;;
1977;SDS011;989;53.016;8.346;2023-07-13T05:48:14;12.13;;;2.87;;
1977;SDS011;989;53.016;8.346;2023-07-13T05:50:41;8.63;;;2.63;;
1977;SDS011;989;53.016;8.346;2023-07-13T05:53:07;11.33;;;3.17;;
1977;SDS011;989;53.016;8.346;2023-07-13T05:55:33;13.70;;;2.63;;
1977;SDS011;989;53.016;8.346;2023-07-13T05:57:59;13.57;;;2.57;;
1977;SDS011;989;53.016;8.346;2023-07-13T06:00:26;14.43;;;3.00;;
1977;SDS011;989;53.016;8.346;2023-07-13T06:02:52;14.00;;;2.77;;
1977;SDS011;989;53.016;8.346;2023-07-13T06:05:18;14.07;;;3.10;;
1977;SDS011;989;53.016;8.346;2023-07-13T06:07:44;9.80;;;2.47;;
1977;SDS011;989;53.016;8.346;2023-07-13T06:10:10;11.47;;;3.30;;
1977;SDS011;989;53.016;8.346;2023-07-13T06:12:36;16.50;;;3.23;;
1977;SDS011;989;53.016;8.346;2023-07-13T06:15:02;15.03;;;3.20;;
1977;SDS011;989;53.016;8.346;2023-07-13T06:17:29;18.60;;;3.50;;
1977;SDS011;989;53.016;8.346;2023-07-13T06:19:55;10.13;;;2.73;;
1977;SDS011;989;53.016;8.346;2023-07-13T06:22:21;13.63;;;2.40;;
1977;SDS011;989;53.016;8.346;2023-07-13T06:24:47;11.33;;;2.53;;
1977;SDS011;989;53.016;8.346;2023-07-13T06:27:13;12.23;;;2.70;;
1977;SDS011;989;53.016;8.346;2023-07-13T06:29:39;16.53;;;2.97;;
1977;SDS011;989;53.016;8.346;2023-07-13T06:32:05;17.63;;;3.33;;
1977;SDS011;989;53.016;8.346;2023-07-13T06:34:32;12.83;;;3.03;;
1977;SDS011;989;53.016;8.346;2023-07-13T06:36:58;12.87;;;2.33;;
1977;SDS011;989;53.016;8.346;2023-07-13T06:39:24;13.60;;;2.97;;
1977;SDS011;989;53.016;8.346;2023-07-13T06:41:50;14.50;;;3.23;;
1977;SDS011;989;53.016;8.346;2023-07-13T06:44:16;13.40;;;2.80;;
1977;SDS011;989;53.016;8.346;2023-07-13T06:46:42;10.10;;;2.87;;
1977;SDS011;989;53.016;8.346;2023-07-13T06:49:08;14.23;;;2.70;;
1977;SDS011;989;53.016;8.346;2023-07-13T06:51:35;7.40;;;2.87;;
1977;SDS011;989;53.016;8.346;2023-07-13T06:54:01;11.83;;;3.20;;
1977;SDS011;989;53.016;8.346;2023-07-13T06:56:27;12.27;;;3.50;;
1977;SDS011;989;53.016;8.346;2023-07-13T06:58:53;13.13;;;3.10;;
1977;SDS011;989;53.016;8.346;2023-07-13T07:01:20;10.10;;;2.50;;
1977;SDS011;989;53.016;8.346;2023-07-13T07:03:46;12.10;;;2.90;;
1977;SDS011;989;53.016;8.346;2023-07-13T07:06:19;12.73;;;2.70;;
1977;SDS011;989;53.016;8.346;2023-07-13T07:08:48;9.00;;;3.00;;
1977;SDS011;989;53.016;8.346;2023-07-13T07:11:20;12.43;;;2.90;;
1977;SDS011;989;53.016;8.346;2023-07-13T07:13:48;13.13;;;2.80;;
1977;SDS011;989;53.016;8.346;2023-07-13T07:16:15;13.43;;;3.83;;
1977;SDS011;989;53.016;8.346;2023-07-13T07:18:41;13.30;;;3.10;;
1977;SDS011;989;53.016;8.346;2023-07-13T07:21:07;14.70;;;3.27;;
1977;SDS011;989;53.016;8.346;2023-07-13T07:23:33;15.47;;;3.13;;
1977;SDS011;989;53.016;8.346;2023-07-13T07:25:59;13.63;;;2.97;;
1977;SDS011;989;53.016;8.346;2023-07-13T07:28:26;16.67;;;3.13;;
1977;SDS011;989;53.016;8.346;2023-07-13T07:30:54;15.03;;;2.67;;
1977;SDS011;989;53.016;8.346;2023-07-13T07:33:20;12.47;;;3.70;;
1977;SDS011;989;53.016;8.346;2023-07-13T07:35:47;14.50;;;3.23;;
1977;SDS011;989;53.016;8.346;2023-07-13T07:38:13;13.10;;;2.80;;
1977;SDS011;989;53.016;8.346;2023-07-13T07:40:39;11.97;;;3.07;;
1977;SDS011;989;53.016;8.346;2023-07-13T07:43:06;9.67;;;2.50;;
1977;SDS011;989;53.016;8.346;2023-07-13T07:45:33;8.47;;;2.67;;
1977;SDS011;989;53.016;8.346;2023-07-13T07:47:59;17.00;;;3.77;;
1977;SDS011;989;53.016;8.346;2023-07-13T07:50:26;12.33;;;3.10;;
1977;SDS011;989;53.016;8.346;2023-07-13T07:52:52;8.97;;;3.13;;
1977;SDS011;989;53.016;8.346;2023-07-13T07:55:21;20.53;;;3.80;;
1977;SDS011;989;53.016;8.346;2023-07-13T07:57:47;9.60;;;2.67;;
1977;SDS011;989;53.016;8.346;2023-07-13T08:00:14;11.43;;;3.20;;
1977;SDS011;989;53.016;8.346;2023-07-13T08:02:41;12.60;;;2.80;;
1977;SDS011;989;53.016;8.346;2023-07-13T08:05:08;12.97;;;3.10;;
1977;SDS011;989;53.016;8.346;2023-07-13T08:07:34;9.93;;;3.10;;
1977;SDS011;989;53.016;8.346;2023-07-13T08:10:01;11.20;;;2.60;;
1977;SDS011;989;53.016;8.346;2023-07-13T08:12:27;8.77;;;3.23;;
1977;SDS011;989;53.016;8.346;2023-07-13T08:14:54;16.30;;;3.27;;
1977;SDS011;989;53.016;8.346;2023-07-13T08:17:22;10.47;;;3.30;;
1977;SDS011;989;53.016;8.346;2023-07-13T08:19:49;23.77;;;3.77;;
1977;SDS011;989;53.016;8.346;2023-07-13T08:22:15;9.30;;;2.97;;
1977;SDS011;989;53.016;8.346;2023-07-13T08:24:41;8.53;;;2.63;;
1977;SDS011;989;53.016;8.346;2023-07-13T08:27:08;16.63;;;3.40;;
1977;SDS011;989;53.016;8.346;2023-07-13T08:29:38;11.70;;;2.50;;
1977;SDS011;989;53.016;8.346;2023-07-13T08:32:05;11.47;;;3.03;;
1977;SDS011;989;53.016;8.346;2023-07-13T08:34:34;14.23;;;2.90;;
1977;SDS011;989;53.016;8.346;2023-07-13T08:37:01;12.03;;;2.63;;
1977;SDS011;989;53.016;8.346;2023-07-13T08:39:27;7.67;;;2.90;;
1977;SDS011;989;53.016;8.346;2023-07-13T08:41:57;13.50;;;2.70;;
1977;SDS011;989;53.016;8.346;2023-07-13T08:44:39;18.50;;;3.10;;
1977;SDS011;989;53.016;8.346;2023-07-13T08:47:12;7.13;;;2.40;;
1977;SDS011;989;53.016;8.346;2023-07-13T08:49:40;8.33;;;2.73;;
1977;SDS011;989;53.016;8.346;2023-07-13T08:52:11;8.53;;;2.57;;
1977;SDS011;989;53.016;8.346;2023-07-13T08:54:55;7.93;;;2.00;;
1977;SDS011;989;53.016;8.346;2023-07-13T08:57:24;12.50;;;2.80;;
1977;SDS011;989;53.016;8.346;2023-07-13T08:59:58;7.87;;;2.40;;
1977;SDS011;989;53.016;8.346;2023-07-13T09:07:39;11.03;;;2.30;;
1977;SDS011;989;53.016;8.346;2023-07-13T09:10:29;10.90;;;2.73;;
1977;SDS011;989;53.016;8.346;2023-07-13T09:15:51;11.77;;;7.23;;
1977;SDS011;989;53.016;8.346;2023-07-13T09:18:26;12.03;;;8.47;;
1977;SDS011;989;53.016;8.346;2023-07-13T09:21:16;12.37;;;8.97;;
1977;SDS011;989;53.016;8.346;2023-07-13T09:23:46;10.50;;;9.40;;
1977;SDS011;989;53.016;8.346;2023-07-13T09:26:19;12.60;;;9.30;;
1977;SDS011;989;53.016;8.346;2023-07-13T09:28:48;16.30;;;9.93;;
1977;SDS011;989;53.016;8.346;2023-07-13T09:31:23;12.20;;;9.17;;
1977;SDS011;989;53.016;8.346;2023-07-13T09:34:02;14.60;;;9.70;;
1977;SDS011;989;53.016;8.346;2023-07-13T09:36:36;13.30;;;10.20;;
1977;SDS011;989;53.016;8.346;2023-07-13T09:39:05;14.23;;;10.50;;
1977;SDS011;989;53.016;8.346;2023-07-13T09:41:46;15.87;;;12.20;;
1977;SDS011;989;53.016;8.346;2023-07-13T09:47:01;12.50;;;11.20;;
1977;SDS011;989;53.016;8.346;2023-07-13T09:49:29;20.30;;;9.40;;
1977;SDS011;989;53.016;8.346;2023-07-13T09:52:00;12.83;;;9.33;;
1977;SDS011;989;53.016;8.346;2023-07-13T09:54:28;12.53;;;7.40;;
1977;SDS011;989;53.016;8.346;2023-07-13T09:56:58;16.70;;;8.20;;
1977;SDS011;989;53.016;8.346;2023-07-13T09:59:33;13.87;;;11.77;;
1977;SDS011;989;53.016;8.346;2023-07-13T10:02:02;12.47;;;11.27;;
1977;SDS011;989;53.016;8.346;2023-07-13T10:04:40;10.80;;;6.43;;
1977;SDS011;989;53.016;8.346;2023-07-13T10:07:07;9.87;;;4.93;;
1977;SDS011;989;53.016;8.346;2023-07-13T10:09:34;12.10;;;4.40;;
1977;SDS011;989;53.016;8.346;2023-07-13T10:12:00;16.30;;;4.60;;
1977;SDS011;989;53.016;8.346;2023-07-13T10:14:27;15.13;;;4.47;;
1977;SDS011;989;53.016;8.346;2023-07-13T10:17:01;9.60;;;4.90;;
1977;SDS011;989;53.016;8.346;2023-07-13T10:19:31;10.20;;;3.87;;
1977;SDS011;989;53.016;8.346;2023-07-13T10:21:59;9.37;;;4.53;;
1977;SDS011;989;53.016;8.346;2023-07-13T10:24:38;11.10;;;6.13;;
1977;SDS011;989;53.016;8.346;2023-07-13T10:27:09;10.60;;;5.23;;
1977;SDS011;989;53.016;8.346;2023-07-13T10:30:28;12.43;;;4.77;;
1977;SDS011;989;53.016;8.346;2023-07-13T10:32:42;8.43;;;3.47;;
1977;SDS011;989;53.016;8.346;2023-07-13T10:35:10;9.77;;;3.53;;
1977;SDS011;989;53.016;8.346;2023-07-13T10:37:41;9.07;;;3.13;;
1977;SDS011;989;53.016;8.346;2023-07-13T10:40:21;10.73;;;2.87;;
1977;SDS011;989;53.016;8.346;2023-07-13T10:42:51;7.10;;;2.30;;
1977;SDS011;989;53.016;8.346;2023-07-13T10:45:22;5.10;;;2.17;;
1977;SDS011;989;53.016;8.346;2023-07-13T10:47:50;7.27;;;3.07;;
1977;SDS011;989;53.016;8.346;2023-07-13T10:50:24;10.00;;;4.60;;
1977;SDS011;989;53.016;8.346;2023-07-13T10:52:52;10.10;;;3.90;;
1977;SDS011;989;53.016;8.346;2023-07-13T11:01:01;11.70;;;4.40;;
1977;SDS011;989;53.016;8.346;2023-07-13T11:03:31;8.63;;;4.40;;
1977;SDS011;989;53.016;8.346;2023-07-13T11:06:29;14.33;;;4.20;;
1977;SDS011;989;53.016;8.346;2023-07-13T11:11:53;10.23;;;2.50;;
1977;SDS011;989;53.016;8.346;2023-07-13T11:16:55;7.60;;;2.97;;
1977;SDS011;989;53.016;8.346;2023-07-13T11:27:33;5.30;;;1.53;;
1977;SDS011;989;53.016;8.346;2023-07-13T11:30:08;12.13;;;1.60;;
1977;SDS011;989;53.016;8.346;2023-07-13T11:33:10;4.80;;;1.60;;
1977;SDS011;989;53.016;8.346;2023-07-13T11:35:49;5.87;;;1.80;;
1977;SDS011;989;53.016;8.346;2023-07-13T11:38:38;5.27;;;1.90;;
1977;SDS011;989;53.016;8.346;2023-07-13T11:41:10;5.10;;;1.67;;
1977;SDS011;989;53.016;8.346;2023-07-13T11:43:43;4.57;;;1.43;;
1977;SDS011;989;53.016;8.346;2023-07-13T11:46:20;9.00;;;1.70;;
1977;SDS011;989;53.016;8.346;2023-07-13T11:48:47;7.07;;;2.10;;
1977;SDS011;989;53.016;8.346;2023-07-13T11:51:19;5.20;;;1.30;;
1977;SDS011;989;53.016;8.346;2023-07-13T11:53:54;5.80;;;1.60;;
1977;SDS011;989;53.016;8.346;2023-07-13T11:56:20;5.43;;;1.70;;
1977;SDS011;989;53.016;8.346;2023-07-13T11:58:50;5.60;;;1.93;;
1977;SDS011;989;53.016;8.346;2023-07-13T12:01:20;5.83;;;2.07;;
1977;SDS011;989;53.016;8.346;2023-07-13T12:03:47;7.33;;;1.73;;
1977;SDS011;989;53.016;8.346;2023-07-13T12:06:21;6.83;;;2.20;;
1977;SDS011;989;53.016;8.346;2023-07-13T12:08:55;7.27;;;1.80;;
1977;SDS011;989;53.016;8.346;2023-07-13T12:11:25;6.60;;;1.80;;
1977;SDS011;989;53.016;8.346;2023-07-13T12:13:52;6.77;;;2.20;;
1977;SDS011;989;53.016;8.346;2023-07-13T12:16:28;6.50;;;2.77;;
1977;SDS011;989;53.016;8.346;2023-07-13T12:18:57;6.70;;;2.80;;
1977;SDS011;989;53.016;8.346;2023-07-13T12:21:32;8.20;;;3.93;;
1977;SDS011;989;53.016;8.346;2023-07-13T12:26:50;6.80;;;5.37;;
1977;SDS011;989;53.016;8.346;2023-07-13T12:29:18;8.10;;;5.93;;
1977;SDS011;989;53.016;8.346;2023-07-13T12:31:45;6.57;;;4.33;;
1977;SDS011;989;53.016;8.346;2023-07-13T12:34:14;8.53;;;6.80;;
1977;SDS011;989;53.016;8.346;2023-07-13T12:36:52;7.30;;;5.40;;
1977;SDS011;989;53.016;8.346;2023-07-13T12:39:23;10.60;;;7.50;;
1977;SDS011;989;53.016;8.346;2023-07-13T12:41:54;9.07;;;7.90;;
1977;SDS011;989;53.016;8.346;2023-07-13T12:44:45;9.00;;;6.93;;
1977;SDS011;989;53.016;8.346;2023-07-13T12:47:12;9.17;;;8.27;;
1977;SDS011;989;53.016;8.346;2023-07-13T12:49:44;11.63;;;10.13;;
1977;SDS011;989;53.016;8.346;2023-07-13T12:52:36;10.93;;;9.90;;
1977;SDS011;989;53.016;8.346;2023-07-13T12:55:07;12.00;;;10.80;;
1977;SDS011;989;53.016;8.346;2023-07-13T13:00:21;15.73;;;14.53;;
1977;SDS011;989;53.016;8.346;2023-07-13T13:02:50;18.83;;;17.23;;
1977;SDS011;989;53.016;8.346;2023-07-13T13:05:17;19.50;;;18.00;;
1977;SDS011;989;53.016;8.346;2023-07-13T13:07:43;14.30;;;13.10;;
1977;SDS011;989;53.016;8.346;2023-07-13T13:10:12;12.80;;;11.60;;
1977;SDS011;989;53.016;8.346;2023-07-13T13:12:39;12.03;;;10.83;;
1977;SDS011;989;53.016;8.346;2023-07-13T13:15:07;11.27;;;10.17;;
1977;SDS011;989;53.016;8.346;2023-07-13T13:17:34;12.00;;;10.80;;
1977;SDS011;989;53.016;8.346;2023-07-13T13:20:01;11.27;;;10.20;;
1977;SDS011;989;53.016;8.346;2023-07-13T13:22:29;10.83;;;9.43;;
1977;SDS011;989;53.016;8.346;2023-07-13T13:24:57;9.73;;;8.73;;
1977;SDS011;989;53.016;8.346;2023-07-13T13:27:24;13.40;;;8.17;;
1977;SDS011;989;53.016;8.346;2023-07-13T13:29:50;8.17;;;5.60;;
1977;SDS011;989;53.016;8.346;2023-07-13T13:32:19;9.40;;;5.90;;
1977;SDS011;989;53.016;8.346;2023-07-13T13:34:45;8.33;;;4.70;;
1977;SDS011;989;53.016;8.346;2023-07-13T13:37:19;9.13;;;5.03;;
1977;SDS011;989;53.016;8.346;2023-07-13T13:39:46;9.03;;;4.37;;
1977;SDS011;989;53.016;8.346;2023-07-13T13:42:13;10.40;;;5.57;;
1977;SDS011;989;53.016;8.346;2023-07-13T13:44:39;10.20;;;5.17;;
1977;SDS011;989;53.016;8.346;2023-07-13T13:47:17;7.93;;;4.70;;
1977;SDS011;989;53.016;8.346;2023-07-13T13:50:12;7.37;;;4.40;;
1977;SDS011;989;53.016;8.346;2023-07-13T13:52:43;7.20;;;3.47;;
1977;SDS011;989;53.016;8.346;2023-07-13T13:55:13;10.30;;;4.80;;
1977;SDS011;989;53.016;8.346;2023-07-13T13:57:45;8.87;;;4.67;;
1977;SDS011;989;53.016;8.346;2023-07-13T14:00:12;10.40;;;5.87;;
1977;SDS011;989;53.016;8.346;2023-07-13T14:02:42;11.03;;;5.50;;
1977;SDS011;989;53.016;8.346;2023-07-13T14:05:18;10.87;;;6.60;;
1977;SDS011;989;53.016;8.346;2023-07-13T14:07:46;8.93;;;7.10;;
1977;SDS011;989;53.016;8.346;2023-07-13T14:10:14;9.50;;;6.80;;
1977;SDS011;989;53.016;8.346;2023-07-13T14:12:43;11.57;;;8.27;;
1977;SDS011;989;53.016;8.346;2023-07-13T14:15:21;10.97;;;8.10;;
1977;SDS011;989;53.016;8.346;2023-07-13T14:17:47;10.47;;;8.90;;
1977;SDS011;989;53.016;8.346;2023-07-13T14:20:17;11.20;;;9.77;;
1977;SDS011;989;53.016;8.346;2023-07-13T14:22:44;32.37;;;9.60;;
1977;SDS011;989;53.016;8.346;2023-07-13T14:25:11;16.53;;;9.70;;
1977;SDS011;989;53.016;8.346;2023-07-13T14:27:38;10.47;;;9.47;;
1977;SDS011;989;53.016;8.346;2023-07-13T14:30:12;10.80;;;9.80;;
1977;SDS011;989;53.016;8.346;2023-07-13T14:32:43;19.00;;;9.70;;
1977;SDS011;989;53.016;8.346;2023-07-13T14:35:11;11.90;;;10.80;;
1977;SDS011;989;53.016;8.346;2023-07-13T14:37:38;11.87;;;10.77;;
1977;SDS011;989;53.016;8.346;2023-07-13T14:40:15;11.40;;;10.27;;
1977;SDS011;989;53.016;8.346;2023-07-13T14:42:51;12.10;;;10.80;;
1977;SDS011;989;53.016;8.346;2023-07-13T14:45:18;12.43;;;11.43;;
1977;SDS011;989;53.016;8.346;2023-07-13T14:47:45;11.40;;;10.30;;
1977;SDS011;989;53.016;8.346;2023-07-13T14:50:15;11.70;;;10.50;;
1977;SDS011;989;53.016;8.346;2023-07-13T14:52:46;16.10;;;10.10;;
1977;SDS011;989;53.016;8.346;2023-07-13T14:55:16;24.63;;;9.63;;
1977;SDS011;989;53.016;8.346;2023-07-13T14:57:43;11.73;;;9.93;;
1977;SDS011;989;53.016;8.346;2023-07-13T15:00:17;10.07;;;8.10;;
1977;SDS011;989;53.016;8.346;2023-07-13T15:02:45;11.73;;;9.60;;
1977;SDS011;989;53.016;8.346;2023-07-13T15:05:15;7.97;;;6.87;;
1977;SDS011;989;53.016;8.346;2023-07-13T15:07:46;17.73;;;7.50;;
1977;SDS011;989;53.016;8.346;2023-07-13T15:10:17;12.40;;;6.77;;
1977;SDS011;989;53.016;8.346;2023-07-13T15:12:45;9.23;;;6.50;;
1977;SDS011;989;53.016;8.346;2023-07-13T15:15:12;10.80;;;5.47;;
1977;SDS011;989;53.016;8.346;2023-07-13T15:17:41;9.77;;;6.83;;
1977;SDS011;989;53.016;8.346;2023-07-13T15:22:45;7.80;;;6.50;;
1977;SDS011;989;53.016;8.346;2023-07-13T15:25:14;9.33;;;6.47;;
1977;SDS011;989;53.016;8.346;2023-07-13T15:27:43;14.07;;;6.13;;
1977;SDS011;989;53.016;8.346;2023-07-13T15:30:09;8.77;;;7.03;;
1977;SDS011;989;53.016;8.346;2023-07-13T15:32:36;8.00;;;5.70;;
1977;SDS011;989;53.016;8.346;2023-07-13T15:35:03;7.87;;;4.60;;
1977;SDS011;989;53.016;8.346;2023-07-13T15:37:29;7.00;;;3.00;;
1977;SDS011;989;53.016;8.346;2023-07-13T15:39:55;6.30;;;3.00;;
1977;SDS011;989;53.016;8.346;2023-07-13T15:42:22;8.80;;;3.90;;
1977;SDS011;989;53.016;8.346;2023-07-13T15:44:48;6.60;;;3.33;;
1977;SDS011;989;53.016;8.346;2023-07-13T15:47:15;5.83;;;2.40;;
1977;SDS011;989;53.016;8.346;2023-07-13T15:49:43;7.50;;;2.80;;
1977;SDS011;989;53.016;8.346;2023-07-13T15:52:15;6.70;;;2.63;;
1977;SDS011;989;53.016;8.346;2023-07-13T15:54:44;6.10;;;2.60;;
1977;SDS011;989;53.016;8.346;2023-07-13T15:57:12;6.30;;;2.20;;
1977;SDS011;989;53.016;8.346;2023-07-13T15:59:39;7.30;;;2.43;;
1977;SDS011;989;53.016;8.346;2023-07-13T16:02:19;6.20;;;2.57;;
1977;SDS011;989;53.016;8.346;2023-07-13T16:04:46;13.33;;;2.67;;
1977;SDS011;989;53.016;8.346;2023-07-13T16:07:13;6.47;;;2.50;;
1977;SDS011;989;53.016;8.346;2023-07-13T16:09:42;7.63;;;2.50;;
1977;SDS011;989;53.016;8.346;2023-07-13T16:12:12;7.10;;;2.43;;